sensor_id;sensor_type;location;lat;lon;timestamp;pressure;altitude;pressure_sealevel;temperature
63009;BMP280;49099;28.428;-16.488;2022-08-27T00:01:20;98507.31;;;24.25
63009;BMP280;49099;28.428;-16.488;2022-08-27T00:03:48;98506.38;;;24.23
63009;BMP280;49099;28.428;-16.488;2022-08-27T00:06:17;98501.00;;;24.23
63009;BMP280;49099;28.428;-16.488;2022-08-27T00:08:46;98501.72;;;24.23
63009;BMP280;49099;28.428;-16.488;2022-08-27T00:11:16;98501.94;;;24.25
63009;BMP280;49099;28.428;-16.488;2022-08-27T00:13:44;98510.00;;;24.25
63009;BMP280;49099;28.428;-16.488;2022-08-27T00:16:13;98506.38;;;24.23
63009;BMP280;49099;28.428;-16.488;2022-08-27T00:18:42;98505.38;;;24.26
63009;BMP280;49099;28.428;-16.488;2022-08-27T00:21:15;98506.38;;;24.23
63009;BMP280;49099;28.428;-16.488;2022-08-27T00:23:43;98507.31;;;24.25
63009;BMP280;49099;28.428;-16.488;2022-08-27T00:26:11;98510.00;;;24.25
63009;BMP280;49099;28.428;-16.488;2022-08-27T00:28:38;98515.63;;;24.22
63009;BMP280;49099;28.428;-16.488;2022-08-27T00:31:06;98500.75;;;24.21
63009;BMP280;49099;28.428;-16.488;2022-08-27T00:33:37;98495.94;;;24.19
63009;BMP280;49099;28.428;-16.488;2022-08-27T00:36:05;98489.81;;;24.19
63009;BMP280;49099;28.428;-16.488;2022-08-27T00:38:33;98490.81;;;24.16
63009;BMP280;49099;28.428;-16.488;2022-08-27T00:41:00;98499.09;;;24.18
63009;BMP280;49099;28.428;-16.488;2022-08-27T00:43:30;98488.34;;;24.18
63009;BMP280;49099;28.428;-16.488;2022-08-27T00:46:10;98484.47;;;24.19
63009;BMP280;49099;28.428;-16.488;2022-08-27T00:48:38;98487.34;;;24.21
63009;BMP280;49099;28.428;-16.488;2022-08-27T00:51:05;98481.53;;;24.17
63009;BMP280;49099;28.428;-16.488;2022-08-27T00:53:33;98475.44;;;24.16
63009;BMP280;49099;28.428;-16.488;2022-08-27T00:56:15;98476.16;;;24.17
63009;BMP280;49099;28.428;-16.488;2022-08-27T00:58:47;98471.38;;;24.10
63009;BMP280;49099;28.428;-16.488;2022-08-27T01:01:16;98464.09;;;24.05
63009;BMP280;49099;28.428;-16.488;2022-08-27T01:03:48;98460.97;;;24.01
63009;BMP280;49099;28.428;-16.488;2022-08-27T01:06:17;98459.94;;;24.04
63009;BMP280;49099;28.428;-16.488;2022-08-27T01:09:09;98456.69;;;24.11
63009;BMP280;49099;28.428;-16.488;2022-08-27T01:11:38;98463.53;;;24.12
63009;BMP280;49099;28.428;-16.488;2022-08-27T01:14:05;98450.91;;;24.07
63009;BMP280;49099;28.428;-16.488;2022-08-27T01:16:38;98461.63;;;24.07
63009;BMP280;49099;28.428;-16.488;2022-08-27T01:19:14;98453.38;;;24.05
63009;BMP280;49099;28.428;-16.488;2022-08-27T01:21:52;98443.63;;;24.02
63009;BMP280;49099;28.428;-16.488;2022-08-27T01:24:34;98447.09;;;23.97
63009;BMP280;49099;28.428;-16.488;2022-08-27T01:27:05;98441.50;;;23.95
63009;BMP280;49099;28.428;-16.488;2022-08-27T01:29:40;98436.91;;;23.90
63009;BMP280;49099;28.428;-16.488;2022-08-27T01:32:11;98445.19;;;23.92
63009;BMP280;49099;28.428;-16.488;2022-08-27T01:34:39;98432.50;;;23.92
63009;BMP280;49099;28.428;-16.488;2022-08-27T01:37:07;98436.16;;;23.95
63009;BMP280;49099;28.428;-16.488;2022-08-27T01:39:36;98436.16;;;23.95
63009;BMP280;49099;28.428;-16.488;2022-08-27T01:42:14;98432.03;;;23.94
63009;BMP280;49099;28.428;-16.488;2022-08-27T01:44:50;98426.41;;;23.92
63009;BMP280;49099;28.428;-16.488;2022-08-27T01:47:20;98423.50;;;23.90
63009;BMP280;49099;28.428;-16.488;2022-08-27T01:49:47;98422.59;;;23.87
63009;BMP280;49099;28.428;-16.488;2022-08-27T01:52:18;98420.63;;;23.88
63009;BMP280;49099;28.428;-16.488;2022-08-27T01:54:46;98416.47;;;23.87
63009;BMP280;49099;28.428;-16.488;2022-08-27T01:57:14;98416.47;;;23.87
63009;BMP280;49099;28.428;-16.488;2022-08-27T01:59:42;98406.19;;;23.91
63009;BMP280;49099;28.428;-16.488;2022-08-27T02:02:11;98409.09;;;23.93
63009;BMP280;49099;28.428;-16.488;2022-08-27T02:04:39;98406.63;;;23.95
63009;BMP280;49099;28.428;-16.488;2022-08-27T02:07:07;98414.00;;;23.89
63009;BMP280;49099;28.428;-16.488;2022-08-27T02:09:34;98403.91;;;23.76
63009;BMP280;49099;28.428;-16.488;2022-08-27T02:12:01;98402.41;;;23.81
63009;BMP280;49099;28.428;-16.488;2022-08-27T02:14:29;98410.38;;;23.86
63009;BMP280;49099;28.428;-16.488;2022-08-27T02:16:56;98410.59;;;23.88
63009;BMP280;49099;28.428;-16.488;2022-08-27T02:19:23;98404.47;;;23.93
63009;BMP280;49099;28.428;-16.488;2022-08-27T02:21:51;98403.69;;;23.98
63009;BMP280;49099;28.428;-16.488;2022-08-27T02:24:18;98406.38;;;23.98
63009;BMP280;49099;28.428;-16.488;2022-08-27T02:26:45;98402.28;;;23.92
63009;BMP280;49099;28.428;-16.488;2022-08-27T02:29:12;98396.91;;;23.92
63009;BMP280;49099;28.428;-16.488;2022-08-27T02:31:40;98389.38;;;23.90
63009;BMP280;49099;28.428;-16.488;2022-08-27T02:34:07;98380.59;;;23.90
63009;BMP280;49099;28.428;-16.488;2022-08-27T02:36:36;98380.38;;;23.88
63009;BMP280;49099;28.428;-16.488;2022-08-27T02:39:05;98372.63;;;23.84
63009;BMP280;49099;28.428;-16.488;2022-08-27T02:41:32;98370.91;;;23.81
63009;BMP280;49099;28.428;-16.488;2022-08-27T02:43:59;98370.91;;;23.81
63009;BMP280;49099;28.428;-16.488;2022-08-27T02:46:27;98359.91;;;23.85
63009;BMP280;49099;28.428;-16.488;2022-08-27T02:48:54;98359.13;;;23.90
63009;BMP280;49099;28.428;-16.488;2022-08-27T02:51:22;98351.66;;;23.83
63009;BMP280;49099;28.428;-16.488;2022-08-27T02:53:49;98348.59;;;23.73
63009;BMP280;49099;28.428;-16.488;2022-08-27T02:56:17;98348.75;;;23.57
63009;BMP280;49099;28.428;-16.488;2022-08-27T02:58:47;98346.63;;;23.50
63009;BMP280;49099;28.428;-16.488;2022-08-27T03:01:15;98344.47;;;23.48
63009;BMP280;49099;28.428;-16.488;2022-08-27T03:03:42;98332.09;;;23.40
63009;BMP280;49099;28.428;-16.488;2022-08-27T03:06:09;98331.34;;;23.45
63009;BMP280;49099;28.428;-16.488;2022-08-27T03:08:36;98333.91;;;23.56
63009;BMP280;49099;28.428;-16.488;2022-08-27T03:11:20;98333.09;;;23.66
63009;BMP280;49099;28.428;-16.488;2022-08-27T03:13:49;98329.59;;;23.71
63009;BMP280;49099;28.428;-16.488;2022-08-27T03:16:17;98326.41;;;23.73
63009;BMP280;49099;28.428;-16.488;2022-08-27T03:18:44;98331.78;;;23.73
63009;BMP280;49099;28.428;-16.488;2022-08-27T03:21:17;98326.84;;;23.77
63009;BMP280;49099;28.428;-16.488;2022-08-27T03:23:45;98334.41;;;23.78
63009;BMP280;49099;28.428;-16.488;2022-08-27T03:26:13;98327.28;;;23.81
63009;BMP280;49099;28.428;-16.488;2022-08-27T03:28:40;98326.34;;;23.78
63009;BMP280;49099;28.428;-16.488;2022-08-27T03:31:16;98324.38;;;23.79
63009;BMP280;49099;28.428;-16.488;2022-08-27T03:33:48;98321.94;;;23.81
63009;BMP280;49099;28.428;-16.488;2022-08-27T03:36:15;98327.28;;;23.81
63009;BMP280;49099;28.428;-16.488;2022-08-27T03:38:42;98323.91;;;23.80
63009;BMP280;49099;28.428;-16.488;2022-08-27T03:41:09;98324.38;;;23.79
63009;BMP280;49099;28.428;-16.488;2022-08-27T03:43:36;98321.69;;;23.79
63009;BMP280;49099;28.428;-16.488;2022-08-27T03:46:06;98315.91;;;23.75
63009;BMP280;49099;28.428;-16.488;2022-08-27T03:48:34;98310.03;;;23.76
63009;BMP280;49099;28.428;-16.488;2022-08-27T03:51:11;98305.84;;;23.81
63009;BMP280;49099;28.428;-16.488;2022-08-27T03:53:40;98304.41;;;23.80
63009;BMP280;49099;28.428;-16.488;2022-08-27T03:56:08;98298.03;;;23.83
63009;BMP280;49099;28.428;-16.488;2022-08-27T03:58:37;98294.84;;;23.84
63009;BMP280;49099;28.428;-16.488;2022-08-27T04:01:05;98297.28;;;23.82
63009;BMP280;49099;28.428;-16.488;2022-08-27T04:03:32;98296.34;;;23.80
63009;BMP280;49099;28.428;-16.488;2022-08-27T04:06:00;98296.63;;;23.76
63009;BMP280;49099;28.428;-16.488;2022-08-27T04:08:29;98298.13;;;23.72
63009;BMP280;49099;28.428;-16.488;2022-08-27T04:10:56;98300.81;;;23.72
63009;BMP280;49099;28.428;-16.488;2022-08-27T04:13:23;98304.97;;;23.73
63009;BMP280;49099;28.428;-16.488;2022-08-27T04:15:52;98298.13;;;23.72
63009;BMP280;49099;28.428;-16.488;2022-08-27T04:18:20;98300.59;;;23.70
63009;BMP280;49099;28.428;-16.488;2022-08-27T04:20:49;98299.16;;;23.69
63009;BMP280;49099;28.428;-16.488;2022-08-27T04:23:18;98301.63;;;23.67
63009;BMP280;49099;28.428;-16.488;2022-08-27T04:25:46;98301.16;;;23.63
63009;BMP280;49099;28.428;-16.488;2022-08-27T04:28:14;98298.69;;;23.65
63009;BMP280;49099;28.428;-16.488;2022-08-27T04:30:44;98300.59;;;23.70
63009;BMP280;49099;28.428;-16.488;2022-08-27T04:33:12;98299.59;;;23.73
63009;BMP280;49099;28.428;-16.488;2022-08-27T04:35:40;98295.97;;;23.70
63009;BMP280;49099;28.428;-16.488;2022-08-27T04:38:08;98299.88;;;23.69
63009;BMP280;49099;28.428;-16.488;2022-08-27T04:40:36;98304.53;;;23.69
63009;BMP280;49099;28.428;-16.488;2022-08-27T04:43:22;98302.31;;;23.67
63009;BMP280;49099;28.428;-16.488;2022-08-27T04:45:49;98307.69;;;23.67
63009;BMP280;49099;28.428;-16.488;2022-08-27T04:48:17;98303.06;;;23.68
63009;BMP280;49099;28.428;-16.488;2022-08-27T04:50:46;98303.06;;;23.68
63009;BMP280;49099;28.428;-16.488;2022-08-27T04:53:15;98310.31;;;23.73
63009;BMP280;49099;28.428;-16.488;2022-08-27T04:55:45;98305.97;;;23.70
63009;BMP280;49099;28.428;-16.488;2022-08-27T04:58:12;98303.50;;;23.72
63009;BMP280;49099;28.428;-16.488;2022-08-27T05:00:44;98310.31;;;23.73
63009;BMP280;49099;28.428;-16.488;2022-08-27T05:03:16;98306.84;;;23.78
63009;BMP280;49099;28.428;-16.488;2022-08-27T05:05:43;98298.72;;;23.83
63009;BMP280;49099;28.428;-16.488;2022-08-27T05:08:10;98306.53;;;23.81
63009;BMP280;49099;28.428;-16.488;2022-08-27T05:10:47;98306.84;;;23.78
63009;BMP280;49099;28.428;-16.488;2022-08-27T05:13:16;98306.41;;;23.74
63009;BMP280;49099;28.428;-16.488;2022-08-27T05:15:45;98304.97;;;23.73
63009;BMP280;49099;28.428;-16.488;2022-08-27T05:18:13;98309.78;;;23.74
63009;BMP280;49099;28.428;-16.488;2022-08-27T05:20:46;98306.41;;;23.74
63009;BMP280;49099;28.428;-16.488;2022-08-27T05:23:14;98311.78;;;23.74
63009;BMP280;49099;28.428;-16.488;2022-08-27T05:25:44;98305.69;;;23.73
63009;BMP280;49099;28.428;-16.488;2022-08-27T05:28:14;98312.78;;;23.71
63009;BMP280;49099;28.428;-16.488;2022-08-27T05:30:44;98309.16;;;23.68
63009;BMP280;49099;28.428;-16.488;2022-08-27T05:33:23;98312.06;;;23.70
63009;BMP280;49099;28.428;-16.488;2022-08-27T05:35:53;98308.59;;;23.75
63009;BMP280;49099;28.428;-16.488;2022-08-27T05:38:22;98315.13;;;23.80
63009;BMP280;49099;28.428;-16.488;2022-08-27T05:41:11;98314.81;;;23.83
63009;BMP280;49099;28.428;-16.488;2022-08-27T05:43:39;98320.94;;;23.84
63009;BMP280;49099;28.428;-16.488;2022-08-27T05:46:10;98314.56;;;23.87
63009;BMP280;49099;28.428;-16.488;2022-08-27T05:48:39;98322.06;;;23.88
63009;BMP280;49099;28.428;-16.488;2022-08-27T05:53:41;98320.69;;;23.82
63009;BMP280;49099;28.428;-16.488;2022-08-27T05:56:19;98321.00;;;23.78
63009;BMP280;49099;28.428;-16.488;2022-08-27T05:58:47;98321.50;;;23.77
63009;BMP280;49099;28.428;-16.488;2022-08-27T06:01:40;98321.78;;;23.73
63009;BMP280;49099;28.428;-16.488;2022-08-27T06:04:09;98318.13;;;23.71
63009;BMP280;49099;28.428;-16.488;2022-08-27T06:06:43;98322.06;;;23.70
63009;BMP280;49099;28.428;-16.488;2022-08-27T06:09:13;98325.69;;;23.72
63009;BMP280;49099;28.428;-16.488;2022-08-27T06:11:41;98318.63;;;23.69
63009;BMP280;49099;28.428;-16.488;2022-08-27T06:14:09;98322.06;;;23.70
63009;BMP280;49099;28.428;-16.488;2022-08-27T06:16:37;98320.06;;;23.76
63009;BMP280;49099;28.428;-16.488;2022-08-27T06:19:06;98320.69;;;23.82
63009;BMP280;49099;28.428;-16.488;2022-08-27T06:21:33;98319.25;;;23.81
63009;BMP280;49099;28.428;-16.488;2022-08-27T06:24:01;98320.06;;;23.76
63009;BMP280;49099;28.428;-16.488;2022-08-27T06:26:28;98317.63;;;23.72
63009;BMP280;49099;28.428;-16.488;2022-08-27T06:28:55;98313.22;;;23.75
63009;BMP280;49099;28.428;-16.488;2022-08-27T06:31:26;98326.41;;;23.73
63009;BMP280;49099;28.428;-16.488;2022-08-27T06:33:58;98316.44;;;23.73
63009;BMP280;49099;28.428;-16.488;2022-08-27T06:36:35;98315.69;;;23.73
63009;BMP280;49099;28.428;-16.488;2022-08-27T06:39:03;98325.88;;;23.74
63009;BMP280;49099;28.428;-16.488;2022-08-27T06:41:32;98319.81;;;23.74
63009;BMP280;49099;28.428;-16.488;2022-08-27T06:43:59;98327.81;;;23.79
63009;BMP280;49099;28.428;-16.488;2022-08-27T06:46:27;98326.28;;;23.84
63009;BMP280;49099;28.428;-16.488;2022-08-27T06:48:57;98327.22;;;23.86
63009;BMP280;49099;28.428;-16.488;2022-08-27T06:51:27;98327.72;;;23.85
63009;BMP280;49099;28.428;-16.488;2022-08-27T06:54:01;98319.47;;;23.83
63009;BMP280;49099;28.428;-16.488;2022-08-27T06:56:28;98322.16;;;23.83
63009;BMP280;49099;28.428;-16.488;2022-08-27T06:58:58;98323.38;;;23.82
63009;BMP280;49099;28.428;-16.488;2022-08-27T07:01:47;98324.03;;;23.88
63009;BMP280;49099;28.428;-16.488;2022-08-27T07:04:22;98321.56;;;23.90
63009;BMP280;49099;28.428;-16.488;2022-08-27T07:06:59;98317.44;;;23.89
63009;BMP280;49099;28.428;-16.488;2022-08-27T07:09:26;98321.38;;;23.88
63009;BMP280;49099;28.428;-16.488;2022-08-27T07:11:53;98318.00;;;23.82
63009;BMP280;49099;28.428;-16.488;2022-08-27T07:14:20;98326.06;;;23.82
63009;BMP280;49099;28.428;-16.488;2022-08-27T07:16:47;98325.63;;;23.78
63009;BMP280;49099;28.428;-16.488;2022-08-27T07:19:17;98331.94;;;23.80
63009;BMP280;49099;28.428;-16.488;2022-08-27T07:21:46;98333.91;;;23.80
63009;BMP280;49099;28.428;-16.488;2022-08-27T07:24:14;98331.22;;;23.80
63009;BMP280;49099;28.428;-16.488;2022-08-27T07:26:42;98335.09;;;23.79
63009;BMP280;49099;28.428;-16.488;2022-08-27T07:29:12;98337.59;;;23.77
63009;BMP280;49099;28.428;-16.488;2022-08-27T07:31:41;98340.47;;;23.79
63009;BMP280;49099;28.428;-16.488;2022-08-27T07:34:09;98342.38;;;23.84
63009;BMP280;49099;28.428;-16.488;2022-08-27T07:36:37;98337.03;;;23.84
63009;BMP280;49099;28.428;-16.488;2022-08-27T07:39:05;98337.75;;;23.84
63009;BMP280;49099;28.428;-16.488;2022-08-27T07:41:33;98336.00;;;23.87
63009;BMP280;49099;28.428;-16.488;2022-08-27T07:44:20;98341.81;;;23.91
63009;BMP280;49099;28.428;-16.488;2022-08-27T07:47:00;98345.72;;;23.90
63009;BMP280;49099;28.428;-16.488;2022-08-27T07:49:28;98344.94;;;23.95
63009;BMP280;49099;28.428;-16.488;2022-08-27T07:51:55;98347.63;;;23.95
63009;BMP280;49099;28.428;-16.488;2022-08-27T07:54:22;98346.81;;;24.00
63009;BMP280;49099;28.428;-16.488;2022-08-27T07:56:51;98341.69;;;24.02
63009;BMP280;49099;28.428;-16.488;2022-08-27T07:59:22;98339.66;;;24.08
63009;BMP280;49099;28.428;-16.488;2022-08-27T08:01:50;98340.53;;;24.16
63009;BMP280;49099;28.428;-16.488;2022-08-27T08:04:18;98337.28;;;24.23
63009;BMP280;49099;28.428;-16.488;2022-08-27T08:06:46;98328.94;;;24.26
63009;BMP280;49099;28.428;-16.488;2022-08-27T08:09:14;98337.91;;;24.29
63009;BMP280;49099;28.428;-16.488;2022-08-27T08:11:41;98322.63;;;24.24
63009;BMP280;49099;28.428;-16.488;2022-08-27T08:14:08;98335.56;;;24.20
63009;BMP280;49099;28.428;-16.488;2022-08-27T08:16:35;98344.16;;;24.18
63009;BMP280;49099;28.428;-16.488;2022-08-27T08:19:03;98344.47;;;24.15
63009;BMP280;49099;28.428;-16.488;2022-08-27T08:21:30;98351.84;;;24.09
63009;BMP280;49099;28.428;-16.488;2022-08-27T08:23:57;98350.25;;;24.00
63009;BMP280;49099;28.428;-16.488;2022-08-27T08:26:24;98357.50;;;24.05
63009;BMP280;49099;28.428;-16.488;2022-08-27T08:28:51;98350.41;;;24.08
63009;BMP280;49099;28.428;-16.488;2022-08-27T08:31:19;98355.78;;;24.08
63009;BMP280;49099;28.428;-16.488;2022-08-27T08:33:46;98356.78;;;24.05
63009;BMP280;49099;28.428;-16.488;2022-08-27T08:36:15;98355.78;;;24.08
63009;BMP280;49099;28.428;-16.488;2022-08-27T08:38:44;98359.91;;;24.09
63009;BMP280;49099;28.428;-16.488;2022-08-27T08:41:39;98362.56;;;24.09
63009;BMP280;49099;28.428;-16.488;2022-08-27T08:44:33;98357.41;;;24.11
63009;BMP280;49099;28.428;-16.488;2022-08-27T08:47:11;98356.41;;;24.14
63009;BMP280;49099;28.428;-16.488;2022-08-27T08:50:04;98348.00;;;24.23
63009;BMP280;49099;28.428;-16.488;2022-08-27T08:58:15;98348.19;;;24.62
63009;BMP280;49099;28.428;-16.488;2022-08-27T09:00:50;98349.53;;;24.68
63009;BMP280;49099;28.428;-16.488;2022-08-27T09:03:19;98353.41;;;24.73
63009;BMP280;49099;28.428;-16.488;2022-08-27T09:06:00;98352.19;;;24.74
63009;BMP280;49099;28.428;-16.488;2022-08-27T09:08:35;98355.28;;;24.78
63009;BMP280;49099;28.428;-16.488;2022-08-27T09:11:23;98353.22;;;24.84
63009;BMP280;49099;28.428;-16.488;2022-08-27T09:13:58;98361.78;;;24.82
63009;BMP280;49099;28.428;-16.488;2022-08-27T09:16:26;98349.91;;;24.78
63009;BMP280;49099;28.428;-16.488;2022-08-27T09:18:54;98359.00;;;24.75
63009;BMP280;49099;28.428;-16.488;2022-08-27T09:22:05;98359.50;;;24.73
63009;BMP280;49099;28.428;-16.488;2022-08-27T09:27:47;98357.16;;;24.83
63009;BMP280;49099;28.428;-16.488;2022-08-27T09:30:22;98360.06;;;24.85
63009;BMP280;49099;28.428;-16.488;2022-08-27T09:33:01;98355.09;;;24.89
63009;BMP280;49099;28.428;-16.488;2022-08-27T09:35:44;98360.88;;;24.93
63009;BMP280;49099;28.428;-16.488;2022-08-27T09:38:30;98349.34;;;24.98
63009;BMP280;49099;28.428;-16.488;2022-08-27T09:41:08;98356.91;;;24.99
63009;BMP280;49099;28.428;-16.488;2022-08-27T09:43:39;98358.66;;;25.10
63009;BMP280;49099;28.428;-16.488;2022-08-27T09:46:22;98357.94;;;25.09
63009;BMP280;49099;28.428;-16.488;2022-08-27T09:48:54;98358.66;;;25.10
63009;BMP280;49099;28.428;-16.488;2022-08-27T09:51:24;98364.47;;;25.14
63009;BMP280;49099;28.428;-16.488;2022-08-27T09:53:59;98372.72;;;25.16
63009;BMP280;49099;28.428;-16.488;2022-08-27T09:56:45;98370.72;;;25.22
63009;BMP280;49099;28.428;-16.488;2022-08-27T09:59:35;98363.25;;;25.28
63009;BMP280;49099;28.428;-16.488;2022-08-27T10:04:52;98372.16;;;25.36
63009;BMP280;49099;28.428;-16.488;2022-08-27T10:07:35;98372.38;;;25.38
63009;BMP280;49099;28.428;-16.488;2022-08-27T10:15:28;98380.50;;;25.32
63009;BMP280;49099;28.428;-16.488;2022-08-27T10:18:22;98379.81;;;25.32
63009;BMP280;49099;28.428;-16.488;2022-08-27T10:21:01;98376.47;;;25.26
63009;BMP280;49099;28.428;-16.488;2022-08-27T10:27:02;98381.25;;;25.33
63009;BMP280;49099;28.428;-16.488;2022-08-27T10:32:57;98383.94;;;25.33
63009;BMP280;49099;28.428;-16.488;2022-08-27T10:35:13;98385.59;;;25.36
63009;BMP280;49099;28.428;-16.488;2022-08-27T10:48:47;98378.66;;;24.83
63009;BMP280;49099;28.428;-16.488;2022-08-27T10:51:21;98387.22;;;24.81
63009;BMP280;49099;28.428;-16.488;2022-08-27T10:54:00;98385.31;;;24.95
63009;BMP280;49099;28.428;-16.488;2022-08-27T10:56:37;98381.09;;;24.99
63009;BMP280;49099;28.428;-16.488;2022-08-27T10:59:29;98378.56;;;25.20
63009;BMP280;49099;28.428;-16.488;2022-08-27T11:04:50;98386.25;;;25.42
63009;BMP280;49099;28.428;-16.488;2022-08-27T11:07:32;98385.81;;;25.51
63009;BMP280;49099;28.428;-16.488;2022-08-27T11:10:07;98387.25;;;25.39
63009;BMP280;49099;28.428;-16.488;2022-08-27T11:12:40;98386.31;;;25.23
63009;BMP280;49099;28.428;-16.488;2022-08-27T11:15:13;98380.84;;;25.29
63009;BMP280;49099;28.428;-16.488;2022-08-27T11:17:49;98374.00;;;25.28
63009;BMP280;49099;28.428;-16.488;2022-08-27T11:23:27;98384.56;;;25.39
63009;BMP280;49099;28.428;-16.488;2022-08-27T11:25:59;98389.63;;;25.42
63009;BMP280;49099;28.428;-16.488;2022-08-27T11:28:40;98391.63;;;25.42
63009;BMP280;49099;28.428;-16.488;2022-08-27T11:31:21;98393.06;;;25.43
63009;BMP280;49099;28.428;-16.488;2022-08-27T11:34:06;98392.75;;;25.46
63009;BMP280;49099;28.428;-16.488;2022-08-27T11:36:55;98388.53;;;25.51
63009;BMP280;49099;28.428;-16.488;2022-08-27T11:42:39;98394.84;;;25.79
63009;BMP280;49099;28.428;-16.488;2022-08-27T11:45:18;98383.94;;;25.85
63009;BMP280;49099;28.428;-16.488;2022-08-27T11:47:52;98389.44;;;25.92
63009;BMP280;49099;28.428;-16.488;2022-08-27T11:50:20;98394.69;;;25.98
63009;BMP280;49099;28.428;-16.488;2022-08-27T11:53:04;98387.97;;;26.05
63009;BMP280;49099;28.428;-16.488;2022-08-27T11:55:36;98389.53;;;26.13
63009;BMP280;49099;28.428;-16.488;2022-08-27T11:58:22;98380.81;;;26.20
63009;BMP280;49099;28.428;-16.488;2022-08-27T12:00:51;98382.47;;;26.23
63009;BMP280;49099;28.428;-16.488;2022-08-27T12:03:23;98375.94;;;26.19
63009;BMP280;49099;28.428;-16.488;2022-08-27T12:13:23;98375.56;;;26.35
63009;BMP280;49099;28.428;-16.488;2022-08-27T12:18:55;98381.16;;;26.37
63009;BMP280;49099;28.428;-16.488;2022-08-27T12:21:55;98371.44;;;26.34
63009;BMP280;49099;28.428;-16.488;2022-08-27T12:24:51;98381.16;;;26.37
63009;BMP280;49099;28.428;-16.488;2022-08-27T12:30:03;98364.69;;;26.41
63009;BMP280;49099;28.428;-16.488;2022-08-27T12:32:36;98368.28;;;26.43
63009;BMP280;49099;28.428;-16.488;2022-08-27T12:38:32;98377.97;;;26.39
63009;BMP280;49099;28.428;-16.488;2022-08-27T12:43:18;98369.34;;;26.40
63009;BMP280;49099;28.428;-16.488;2022-08-27T12:45:51;98360.81;;;26.49
63009;BMP280;49099;28.428;-16.488;2022-08-27T12:48:26;98356.81;;;26.43
63009;BMP280;49099;28.428;-16.488;2022-08-27T12:50:56;98356.88;;;26.50
63009;BMP280;49099;28.428;-16.488;2022-08-27T13:03:52;98346.69;;;26.56
63009;BMP280;49099;28.428;-16.488;2022-08-27T13:06:33;98349.31;;;26.49
63009;BMP280;49099;28.428;-16.488;2022-08-27T13:09:04;98352.00;;;26.49
63009;BMP280;49099;28.428;-16.488;2022-08-27T13:11:47;98334.06;;;26.51
63009;BMP280;49099;28.428;-16.488;2022-08-27T13:14:18;98332.84;;;26.52
63009;BMP280;49099;28.428;-16.488;2022-08-27T13:16:59;98328.84;;;26.46
63009;BMP280;49099;28.428;-16.488;2022-08-27T13:19:32;98328.09;;;26.45
63009;BMP280;49099;28.428;-16.488;2022-08-27T13:22:01;98324.84;;;26.39
63009;BMP280;49099;28.428;-16.488;2022-08-27T13:24:42;98325.47;;;26.32
63009;BMP280;49099;28.428;-16.488;2022-08-27T13:27:11;98319.03;;;26.35
63009;BMP280;49099;28.428;-16.488;2022-08-27T13:29:39;98318.44;;;26.29
63009;BMP280;49099;28.428;-16.488;2022-08-27T13:32:07;98304.25;;;26.29
63009;BMP280;49099;28.428;-16.488;2022-08-27T13:34:38;98308.06;;;26.33
63009;BMP280;49099;28.428;-16.488;2022-08-27T13:37:21;98307.22;;;26.38
63009;BMP280;49099;28.428;-16.488;2022-08-27T13:39:54;98304.31;;;26.36
63009;BMP280;49099;28.428;-16.488;2022-08-27T13:42:23;98298.94;;;26.36
63009;BMP280;49099;28.428;-16.488;2022-08-27T13:44:53;98303.28;;;26.39
63009;BMP280;49099;28.428;-16.488;2022-08-27T13:47:25;98303.28;;;26.39
63009;BMP280;49099;28.428;-16.488;2022-08-27T13:50:18;98307.03;;;26.36
63009;BMP280;49099;28.428;-16.488;2022-08-27T13:52:46;98305.25;;;26.39
63009;BMP280;49099;28.428;-16.488;2022-08-27T13:55:45;98298.47;;;26.45
63009;BMP280;49099;28.428;-16.488;2022-08-27T13:58:23;98300.13;;;26.48
63009;BMP280;49099;28.428;-16.488;2022-08-27T14:00:50;98288.94;;;26.44
63009;BMP280;49099;28.428;-16.488;2022-08-27T14:03:28;98291.78;;;26.39
63009;BMP280;49099;28.428;-16.488;2022-08-27T14:05:57;98284.28;;;26.45
63009;BMP280;49099;28.428;-16.488;2022-08-27T14:08:31;98289.00;;;26.52
63009;BMP280;49099;28.428;-16.488;2022-08-27T14:11:05;98290.78;;;26.49
63009;BMP280;49099;28.428;-16.488;2022-08-27T14:13:39;98286.66;;;26.48
63009;BMP280;49099;28.428;-16.488;2022-08-27T14:16:25;98272.97;;;26.46
63009;BMP280;49099;28.428;-16.488;2022-08-27T14:19:24;98275.22;;;26.35
63009;BMP280;49099;28.428;-16.488;2022-08-27T14:21:51;98261.25;;;26.36
63009;BMP280;49099;28.428;-16.488;2022-08-27T14:24:19;98261.28;;;26.44
63009;BMP280;49099;28.428;-16.488;2022-08-27T14:26:51;98252.34;;;26.49
63009;BMP280;49099;28.428;-16.488;2022-08-27T14:29:18;98249.66;;;26.49
63009;BMP280;49099;28.428;-16.488;2022-08-27T14:31:46;98246.97;;;26.49
63009;BMP280;49099;28.428;-16.488;2022-08-27T14:34:13;98241.78;;;26.51
63009;BMP280;49099;28.428;-16.488;2022-08-27T14:36:41;98248.47;;;26.57
63009;BMP280;49099;28.428;-16.488;2022-08-27T14:39:10;98251.69;;;26.56
63009;BMP280;49099;28.428;-16.488;2022-08-27T14:41:38;98247.34;;;26.53
63009;BMP280;49099;28.428;-16.488;2022-08-27T14:44:05;98245.19;;;26.51
63009;BMP280;49099;28.428;-16.488;2022-08-27T14:46:35;98236.91;;;26.49
63009;BMP280;49099;28.428;-16.488;2022-08-27T14:49:14;98240.63;;;26.46
63009;BMP280;49099;28.428;-16.488;2022-08-27T14:51:42;98232.38;;;26.44
63009;BMP280;49099;28.428;-16.488;2022-08-27T14:54:11;98233.84;;;26.45
63009;BMP280;49099;28.428;-16.488;2022-08-27T14:56:40;98234.41;;;26.51
63009;BMP280;49099;28.428;-16.488;2022-08-27T14:59:07;98230.66;;;26.54
63009;BMP280;49099;28.428;-16.488;2022-08-27T15:01:34;98229.63;;;26.57
63009;BMP280;49099;28.428;-16.488;2022-08-27T15:04:04;98230.84;;;26.56
63009;BMP280;49099;28.428;-16.488;2022-08-27T15:06:32;98219.41;;;26.63
63009;BMP280;49099;28.428;-16.488;2022-08-27T15:08:59;98221.28;;;26.68
63009;BMP280;49099;28.428;-16.488;2022-08-27T15:11:30;98216.63;;;26.76
63009;BMP280;49099;28.428;-16.488;2022-08-27T15:13:58;98209.66;;;26.81
63009;BMP280;49099;28.428;-16.488;2022-08-27T15:16:31;98203.06;;;26.89
63009;BMP280;49099;28.428;-16.488;2022-08-27T15:19:00;98208.78;;;26.86
63009;BMP280;49099;28.428;-16.488;2022-08-27T15:21:28;98203.75;;;26.82
63009;BMP280;49099;28.428;-16.488;2022-08-27T15:24:03;98211.31;;;26.84
63009;BMP280;49099;28.428;-16.488;2022-08-27T15:26:31;98208.03;;;26.85